N6564S KFRG-CYRC
Flight info
| Callsign | N6564S |
|---|---|
| Flight time | 2h 29m |
| Altitude | 19000 |
| Route | BIZEX Q133 PBERG DCT CATOG Q824 PENTU |
| Aircraft | B58T/L-SDFRY/C |
Departure
| Time | 2026-05-05 22:24 |
|---|---|
| Airport | Republic Airport (KFRG) |
Arrival
| Time | 2026-05-06 00:54 |
|---|---|
| Airport | Chicoutimi/Saint-Honoré Aerodrome (CYRC) |
| Time | Latitude | Longitude | Altitude | Speed | Heading |
|---|---|---|---|---|---|
| 2026-05-05 21:48 | 40.72894 | -73.41696 | 78 ft | 0 kts | 18° |
| 2026-05-05 22:12 | 40.72915 | -73.41691 | 79 ft | 7 kts | 349° |
| 2026-05-05 22:13 | 40.72965 | -73.41679 | 81 ft | 11 kts | 73° |
| 2026-05-05 22:13 | 40.72922 | -73.41584 | 78 ft | 14 kts | 83° |
| 2026-05-05 22:13 | 40.73022 | -73.41555 | 76 ft | 19 kts | 1° |
| 2026-05-05 22:13 | 40.73162 | -73.41553 | 76 ft | 21 kts | 359° |
| 2026-05-05 22:14 | 40.73308 | -73.41557 | 73 ft | 23 kts | 360° |
| 2026-05-05 22:14 | 40.73467 | -73.41560 | 77 ft | 20 kts | 358° |
| 2026-05-05 22:14 | 40.73598 | -73.41563 | 80 ft | 18 kts | 356° |
| 2026-05-05 22:14 | 40.73693 | -73.41568 | 81 ft | 5 kts | 32° |
| 2026-05-05 22:15 | 40.73694 | -73.41567 | 81 ft | 0 kts | 54° |
| 2026-05-05 22:22 | 40.73695 | -73.41565 | 81 ft | 1 kts | 52° |
| 2026-05-05 22:23 | 40.73723 | -73.41554 | 83 ft | 8 kts | 21° |
| 2026-05-05 22:23 | 40.73780 | -73.41516 | 84 ft | 10 kts | 37° |
| 2026-05-05 22:23 | 40.73768 | -73.41453 | 84 ft | 13 kts | 176° |
| 2026-05-05 22:23 | 40.73490 | -73.41463 | 73 ft | 76 kts | 187° |
| 2026-05-05 22:24 | 40.72838 | -73.41419 | 193 ft | 106 kts | 175° |
| 2026-05-05 22:24 | 40.72121 | -73.41580 | 464 ft | 102 kts | 211° |
| 2026-05-05 22:24 | 40.71457 | -73.41915 | 805 ft | 111 kts | 202° |
| 2026-05-05 22:24 | 40.70705 | -73.42260 | 1206 ft | 106 kts | 196° |
| 2026-05-05 22:25 | 40.69926 | -73.42533 | 1226 ft | 132 kts | 199° |
| 2026-05-05 22:25 | 40.69058 | -73.42804 | 1555 ft | 126 kts | 196° |
| 2026-05-05 22:25 | 40.68190 | -73.43189 | 1631 ft | 131 kts | 207° |
| 2026-05-05 22:25 | 40.67439 | -73.43754 | 2003 ft | 120 kts | 221° |
| 2026-05-05 22:26 | 40.67241 | -73.44764 | 2374 ft | 129 kts | 276° |
| 2026-05-05 22:26 | 40.67674 | -73.45826 | 2751 ft | 131 kts | 285° |
| 2026-05-05 22:26 | 40.68129 | -73.46833 | 3012 ft | 131 kts | 285° |
| 2026-05-05 22:26 | 40.68619 | -73.47823 | 3321 ft | 124 kts | 287° |
| 2026-05-05 22:27 | 40.69093 | -73.48740 | 3689 ft | 118 kts | 287° |
| 2026-05-05 22:27 | 40.69550 | -73.49615 | 4049 ft | 114 kts | 287° |
| 2026-05-05 22:27 | 40.69997 | -73.50466 | 4409 ft | 111 kts | 287° |
| 2026-05-05 22:27 | 40.70437 | -73.51294 | 4774 ft | 110 kts | 289° |
| 2026-05-05 22:28 | 40.71091 | -73.51937 | 5132 ft | 125 kts | 318° |
| 2026-05-05 22:28 | 40.71804 | -73.52475 | 5490 ft | 102 kts | 286° |
| 2026-05-05 22:28 | 40.72151 | -73.53251 | 5798 ft | 101 kts | 285° |
| 2026-05-05 22:28 | 40.72538 | -73.54053 | 6087 ft | 107 kts | 285° |
| 2026-05-05 22:29 | 40.72967 | -73.54909 | 6358 ft | 116 kts | 289° |
| 2026-05-05 22:29 | 40.73449 | -73.55796 | 6630 ft | 122 kts | 291° |
| 2026-05-05 22:29 | 40.73965 | -73.56715 | 6901 ft | 127 kts | 292° |
| 2026-05-05 22:29 | 40.74504 | -73.57662 | 7183 ft | 129 kts | 293° |
| 2026-05-05 22:30 | 40.75054 | -73.58621 | 7501 ft | 130 kts | 293° |
| 2026-05-05 22:30 | 40.75600 | -73.59573 | 7807 ft | 130 kts | 292° |
| 2026-05-05 22:30 | 40.76149 | -73.60527 | 8111 ft | 130 kts | 292° |
| 2026-05-05 22:30 | 40.76693 | -73.61477 | 8409 ft | 130 kts | 292° |
| 2026-05-05 22:31 | 40.77243 | -73.62436 | 8712 ft | 132 kts | 292° |
| 2026-05-05 22:31 | 40.77794 | -73.63401 | 9017 ft | 132 kts | 293° |
| 2026-05-05 22:31 | 40.78341 | -73.64355 | 9314 ft | 132 kts | 293° |
| 2026-05-05 22:31 | 40.78897 | -73.65320 | 9666 ft | 129 kts | 293° |
| 2026-05-05 22:32 | 40.79438 | -73.66253 | 10020 ft | 126 kts | 292° |
| 2026-05-05 22:32 | 40.79954 | -73.67162 | 10360 ft | 124 kts | 293° |
| 2026-05-05 22:32 | 40.80469 | -73.68062 | 10707 ft | 121 kts | 293° |
| 2026-05-05 22:32 | 40.80978 | -73.68955 | 11059 ft | 119 kts | 292° |
| 2026-05-05 22:33 | 40.81475 | -73.69824 | 11397 ft | 118 kts | 292° |
| 2026-05-05 22:33 | 40.81802 | -73.70396 | 11629 ft | 117 kts | 292° |
| 2026-05-05 22:33 | 40.82456 | -73.71537 | 12094 ft | 115 kts | 292° |
| 2026-05-05 22:33 | 40.82935 | -73.72376 | 12440 ft | 113 kts | 292° |
| 2026-05-05 22:34 | 40.83407 | -73.73203 | 12774 ft | 112 kts | 292° |
| 2026-05-05 22:34 | 40.83873 | -73.74021 | 13123 ft | 111 kts | 293° |
| 2026-05-05 22:34 | 40.84339 | -73.74836 | 13443 ft | 111 kts | 293° |
| 2026-05-05 22:34 | 40.84800 | -73.75649 | 13769 ft | 111 kts | 293° |
| 2026-05-05 22:35 | 40.85262 | -73.76457 | 14083 ft | 110 kts | 294° |
| 2026-05-05 22:35 | 40.85722 | -73.77261 | 14409 ft | 109 kts | 294° |
| 2026-05-05 22:35 | 40.86023 | -73.77789 | 14618 ft | 109 kts | 294° |
| 2026-05-05 22:35 | 40.86485 | -73.78596 | 14958 ft | 106 kts | 294° |
| 2026-05-05 22:36 | 40.86924 | -73.79374 | 15220 ft | 110 kts | 294° |
| 2026-05-05 22:36 | 40.87395 | -73.80199 | 15477 ft | 114 kts | 294° |
| 2026-05-05 22:36 | 40.87881 | -73.81055 | 15738 ft | 118 kts | 295° |
| 2026-05-05 22:36 | 40.88384 | -73.81936 | 15996 ft | 123 kts | 296° |
| 2026-05-05 22:37 | 40.88907 | -73.82857 | 16235 ft | 128 kts | 296° |
| 2026-05-05 22:37 | 40.89450 | -73.83809 | 16479 ft | 132 kts | 296° |
| 2026-05-05 22:37 | 40.89916 | -73.84626 | 16678 ft | 136 kts | 297° |
| 2026-05-05 22:37 | 40.90494 | -73.85643 | 16920 ft | 141 kts | 297° |
| 2026-05-05 22:38 | 40.91090 | -73.86688 | 17162 ft | 144 kts | 297° |
| 2026-05-05 22:38 | 40.91698 | -73.87758 | 17401 ft | 147 kts | 298° |
| 2026-05-05 22:38 | 40.92321 | -73.88852 | 17635 ft | 150 kts | 298° |
| 2026-05-05 22:38 | 40.93042 | -73.90122 | 17904 ft | 154 kts | 298° |
| 2026-05-05 22:39 | 40.93604 | -73.91109 | 18109 ft | 156 kts | 298° |
| 2026-05-05 22:39 | 40.94257 | -73.92260 | 18348 ft | 158 kts | 298° |
| 2026-05-05 22:39 | 40.94924 | -73.93440 | 18579 ft | 161 kts | 299° |
| 2026-05-05 22:39 | 40.95605 | -73.94630 | 18804 ft | 163 kts | 299° |
| 2026-05-05 22:40 | 40.96307 | -73.95876 | 18845 ft | 175 kts | 299° |
| 2026-05-05 22:40 | 40.97071 | -73.97224 | 18852 ft | 186 kts | 300° |
| 2026-05-05 22:40 | 40.97854 | -73.98605 | 18852 ft | 194 kts | 300° |
| 2026-05-05 22:40 | 40.98681 | -74.00063 | 18852 ft | 200 kts | 300° |
| 2026-05-05 22:41 | 40.99537 | -74.01572 | 18855 ft | 204 kts | 300° |
| 2026-05-05 22:41 | 41.00376 | -74.03049 | 18851 ft | 203 kts | 300° |
| 2026-05-05 22:41 | 41.01228 | -74.04555 | 18849 ft | 203 kts | 300° |
| 2026-05-05 22:41 | 41.02063 | -74.06030 | 18848 ft | 199 kts | 300° |
| 2026-05-05 22:42 | 41.02902 | -74.07515 | 18843 ft | 197 kts | 300° |
| 2026-05-05 22:42 | 41.03719 | -74.08961 | 18841 ft | 195 kts | 300° |
| 2026-05-05 22:42 | 41.04519 | -74.10380 | 18836 ft | 194 kts | 300° |
| 2026-05-05 22:42 | 41.05336 | -74.11829 | 18833 ft | 193 kts | 300° |
| 2026-05-05 22:43 | 41.06139 | -74.13253 | 18833 ft | 193 kts | 300° |
| 2026-05-05 22:43 | 41.06926 | -74.14652 | 18831 ft | 192 kts | 300° |
| 2026-05-05 22:43 | 41.07724 | -74.16064 | 18835 ft | 191 kts | 300° |
| 2026-05-05 22:43 | 41.08526 | -74.17487 | 18837 ft | 191 kts | 299° |
| 2026-05-05 22:44 | 41.09319 | -74.18892 | 18841 ft | 189 kts | 299° |
| 2026-05-05 22:44 | 41.10104 | -74.20292 | 18843 ft | 188 kts | 299° |
| 2026-05-05 22:44 | 41.10887 | -74.21683 | 18837 ft | 188 kts | 299° |
| 2026-05-05 22:44 | 41.11669 | -74.23074 | 18833 ft | 189 kts | 299° |
| 2026-05-05 22:45 | 41.12453 | -74.24469 | 18835 ft | 189 kts | 299° |
| 2026-05-05 22:45 | 41.13239 | -74.25869 | 18838 ft | 189 kts | 299° |
| 2026-05-05 22:45 | 41.14022 | -74.27262 | 18834 ft | 189 kts | 299° |
| 2026-05-05 22:45 | 41.14810 | -74.28666 | 18831 ft | 189 kts | 299° |
| 2026-05-05 22:46 | 41.15597 | -74.30070 | 18834 ft | 189 kts | 299° |
| 2026-05-05 22:46 | 41.16381 | -74.31469 | 18834 ft | 190 kts | 299° |
| 2026-05-05 22:46 | 41.17170 | -74.32877 | 18837 ft | 189 kts | 299° |
| 2026-05-05 22:46 | 41.17956 | -74.34279 | 18838 ft | 189 kts | 299° |
| 2026-05-05 22:47 | 41.18744 | -74.35684 | 18833 ft | 189 kts | 299° |
| 2026-05-05 22:47 | 41.19530 | -74.37090 | 18836 ft | 189 kts | 299° |
| 2026-05-05 22:47 | 41.20316 | -74.38495 | 18832 ft | 189 kts | 299° |
| 2026-05-05 22:47 | 41.21101 | -74.39899 | 18838 ft | 189 kts | 299° |
| 2026-05-05 22:48 | 41.21884 | -74.41299 | 18836 ft | 188 kts | 299° |
| 2026-05-05 22:48 | 41.22653 | -74.42675 | 18842 ft | 188 kts | 299° |
| 2026-05-05 22:48 | 41.23453 | -74.44088 | 18833 ft | 190 kts | 303° |
| 2026-05-05 22:48 | 41.24553 | -74.45135 | 18837 ft | 204 kts | 327° |
| 2026-05-05 22:49 | 41.25986 | -74.45483 | 18842 ft | 221 kts | 353° |
| 2026-05-05 22:49 | 41.27521 | -74.44999 | 18851 ft | 231 kts | 9° |
| 2026-05-05 22:49 | 41.29048 | -74.44317 | 18850 ft | 231 kts | 9° |
| 2026-05-05 22:49 | 41.30579 | -74.43650 | 18851 ft | 231 kts | 9° |
| 2026-05-05 22:50 | 41.32114 | -74.42993 | 18852 ft | 231 kts | 9° |
| 2026-05-05 22:50 | 41.33634 | -74.42341 | 18852 ft | 231 kts | 9° |
| 2026-05-05 22:50 | 41.35181 | -74.41675 | 18850 ft | 232 kts | 9° |
| 2026-05-05 22:50 | 41.36709 | -74.41019 | 18853 ft | 232 kts | 9° |
| 2026-05-05 22:51 | 41.38260 | -74.40352 | 18840 ft | 232 kts | 9° |
| 2026-05-05 22:51 | 41.39795 | -74.39692 | 18840 ft | 232 kts | 8° |
| 2026-05-05 22:51 | 41.41336 | -74.39029 | 18834 ft | 233 kts | 8° |
| 2026-05-05 22:51 | 41.42876 | -74.38365 | 18833 ft | 233 kts | 8° |
| 2026-05-05 22:52 | 41.44401 | -74.37708 | 18832 ft | 232 kts | 8° |
| 2026-05-05 22:52 | 41.45935 | -74.37047 | 18838 ft | 233 kts | 8° |
| 2026-05-05 22:52 | 41.47483 | -74.36380 | 18831 ft | 233 kts | 8° |
| 2026-05-05 22:52 | 41.48999 | -74.35726 | 18830 ft | 232 kts | 8° |
| 2026-05-05 22:53 | 41.50564 | -74.35050 | 18835 ft | 232 kts | 9° |
| 2026-05-05 22:53 | 41.52103 | -74.34385 | 18830 ft | 233 kts | 8° |
| 2026-05-05 22:53 | 41.53642 | -74.33720 | 18830 ft | 233 kts | 8° |
| 2026-05-05 22:53 | 41.55184 | -74.33054 | 18830 ft | 233 kts | 8° |
| 2026-05-05 22:54 | 41.56734 | -74.32383 | 18831 ft | 234 kts | 8° |
| 2026-05-05 22:54 | 41.58282 | -74.31713 | 18831 ft | 234 kts | 8° |
| 2026-05-05 22:54 | 41.59835 | -74.31040 | 18831 ft | 234 kts | 8° |
| 2026-05-05 22:54 | 41.61386 | -74.30368 | 18831 ft | 234 kts | 8° |
| 2026-05-05 22:55 | 41.62920 | -74.29703 | 18830 ft | 235 kts | 8° |
| 2026-05-05 22:55 | 41.64464 | -74.29033 | 18831 ft | 235 kts | 8° |
| 2026-05-05 22:55 | 41.65966 | -74.28381 | 18830 ft | 235 kts | 8° |
| 2026-05-05 22:55 | 41.67574 | -74.27684 | 18830 ft | 235 kts | 8° |
| 2026-05-05 22:56 | 41.69134 | -74.27006 | 18835 ft | 235 kts | 8° |
| 2026-05-05 22:56 | 41.70695 | -74.26327 | 18833 ft | 235 kts | 8° |
| 2026-05-05 22:56 | 41.72250 | -74.25651 | 18837 ft | 235 kts | 8° |
| 2026-05-05 22:56 | 41.73802 | -74.24975 | 18829 ft | 235 kts | 8° |
| 2026-05-05 22:57 | 41.75358 | -74.24299 | 18828 ft | 235 kts | 8° |
| 2026-05-05 22:57 | 41.76908 | -74.23624 | 18833 ft | 235 kts | 8° |
| 2026-05-05 22:57 | 41.78436 | -74.22957 | 18830 ft | 235 kts | 8° |
| 2026-05-05 22:57 | 41.80002 | -74.22275 | 18829 ft | 235 kts | 8° |
| 2026-05-05 22:58 | 41.81555 | -74.21598 | 18835 ft | 235 kts | 8° |
| 2026-05-05 22:58 | 41.83115 | -74.20916 | 18831 ft | 235 kts | 8° |
| 2026-05-05 22:58 | 41.84675 | -74.20235 | 18830 ft | 235 kts | 8° |
| 2026-05-05 22:58 | 41.86227 | -74.19558 | 18829 ft | 235 kts | 8° |
| 2026-05-05 22:59 | 41.87789 | -74.18876 | 18837 ft | 236 kts | 8° |
| 2026-05-05 22:59 | 41.89350 | -74.18193 | 18817 ft | 237 kts | 8° |
| 2026-05-05 22:59 | 41.90909 | -74.17512 | 18810 ft | 236 kts | 8° |
| 2026-05-05 22:59 | 41.92479 | -74.16825 | 18813 ft | 236 kts | 8° |
| 2026-05-05 23:00 | 41.95610 | -74.15452 | 18814 ft | 237 kts | 8° |
| 2026-05-05 23:00 | 41.97180 | -74.14764 | 18813 ft | 237 kts | 8° |
| 2026-05-05 23:00 | 41.98749 | -74.14076 | 18813 ft | 237 kts | 8° |
| 2026-05-05 23:01 | 42.00293 | -74.13399 | 18813 ft | 236 kts | 8° |
| 2026-05-05 23:01 | 42.01838 | -74.12722 | 18813 ft | 237 kts | 8° |
| 2026-05-05 23:01 | 42.03426 | -74.12024 | 18813 ft | 236 kts | 8° |
| 2026-05-05 23:01 | 42.04975 | -74.11343 | 18812 ft | 236 kts | 8° |
| 2026-05-05 23:02 | 42.06548 | -74.10652 | 18815 ft | 236 kts | 8° |
| 2026-05-05 23:02 | 42.08105 | -74.09965 | 18813 ft | 235 kts | 8° |
| 2026-05-05 23:02 | 42.09663 | -74.09279 | 18815 ft | 236 kts | 8° |
| 2026-05-05 23:02 | 42.11227 | -74.08595 | 18816 ft | 236 kts | 8° |
| 2026-05-05 23:03 | 42.12778 | -74.07910 | 18817 ft | 234 kts | 8° |
| 2026-05-05 23:03 | 42.14338 | -74.07221 | 18818 ft | 236 kts | 8° |
| 2026-05-05 23:03 | 42.15890 | -74.06538 | 18816 ft | 236 kts | 8° |
| 2026-05-05 23:03 | 42.17458 | -74.05845 | 18816 ft | 235 kts | 9° |
| 2026-05-05 23:04 | 42.19017 | -74.05156 | 18815 ft | 235 kts | 8° |
| 2026-05-05 23:04 | 42.20585 | -74.04501 | 18812 ft | 234 kts | 360° |
| 2026-05-05 23:04 | 42.22132 | -74.04530 | 18818 ft | 216 kts | 340° |
| 2026-05-05 23:04 | 42.23601 | -74.04849 | 18827 ft | 214 kts | 339° |
| 2026-05-05 23:05 | 42.25076 | -74.05192 | 18817 ft | 217 kts | 338° |
| 2026-05-05 23:05 | 42.26555 | -74.05551 | 18825 ft | 218 kts | 339° |
| 2026-05-05 23:05 | 42.28046 | -74.05891 | 18826 ft | 216 kts | 339° |
| 2026-05-05 23:05 | 42.29531 | -74.06235 | 18817 ft | 214 kts | 339° |
| 2026-05-05 23:06 | 42.31000 | -74.06569 | 18816 ft | 214 kts | 339° |
| 2026-05-05 23:06 | 42.32473 | -74.06904 | 18816 ft | 215 kts | 339° |
| 2026-05-05 23:06 | 42.33950 | -74.07240 | 18808 ft | 215 kts | 339° |
| 2026-05-05 23:06 | 42.35421 | -74.07574 | 18818 ft | 215 kts | 339° |
| 2026-05-05 23:07 | 42.36896 | -74.07910 | 18818 ft | 215 kts | 339° |
| 2026-05-05 23:07 | 42.38368 | -74.08245 | 18811 ft | 215 kts | 339° |
| 2026-05-05 23:07 | 42.39810 | -74.08573 | 18818 ft | 215 kts | 339° |
| 2026-05-05 23:07 | 42.41327 | -74.08919 | 18817 ft | 216 kts | 339° |
| 2026-05-05 23:08 | 42.42785 | -74.09251 | 18822 ft | 216 kts | 339° |
| 2026-05-05 23:08 | 42.44291 | -74.09595 | 18818 ft | 216 kts | 339° |
| 2026-05-05 23:08 | 42.45741 | -74.09928 | 18825 ft | 216 kts | 339° |
| 2026-05-05 23:08 | 42.47227 | -74.10269 | 18825 ft | 216 kts | 339° |
| 2026-05-05 23:09 | 42.48712 | -74.10611 | 18821 ft | 217 kts | 339° |
| 2026-05-05 23:09 | 42.50192 | -74.10954 | 18825 ft | 217 kts | 339° |
| 2026-05-05 23:09 | 42.51682 | -74.11300 | 18820 ft | 216 kts | 339° |
| 2026-05-05 23:09 | 42.53166 | -74.11640 | 18821 ft | 216 kts | 339° |
| 2026-05-05 23:10 | 42.54659 | -74.11974 | 18822 ft | 217 kts | 339° |
| 2026-05-05 23:10 | 42.56150 | -74.12308 | 18821 ft | 217 kts | 339° |
| 2026-05-05 23:10 | 42.57644 | -74.12647 | 18830 ft | 218 kts | 339° |
| 2026-05-05 23:10 | 42.58638 | -74.12880 | 18815 ft | 219 kts | 339° |
| 2026-05-05 23:11 | 42.60748 | -74.12680 | 18814 ft | 235 kts | 2° |
| 2026-05-05 23:11 | 42.61805 | -74.12331 | 18814 ft | 236 kts | 4° |
| 2026-05-05 23:11 | 42.63403 | -74.11814 | 18815 ft | 235 kts | 2° |
| 2026-05-05 23:11 | 42.64997 | -74.11371 | 18816 ft | 234 kts | 1° |
| 2026-05-05 23:12 | 42.67100 | -74.10805 | 18812 ft | 234 kts | 1° |
| 2026-05-05 23:12 | 42.68191 | -74.10500 | 18816 ft | 234 kts | 1° |
| 2026-05-05 23:12 | 42.69776 | -74.10055 | 18815 ft | 234 kts | 1° |
| 2026-05-05 23:12 | 42.71374 | -74.09609 | 18814 ft | 233 kts | 1° |
| 2026-05-05 23:13 | 42.72965 | -74.09165 | 18815 ft | 233 kts | 1° |
| 2026-05-05 23:13 | 42.74533 | -74.08729 | 18812 ft | 233 kts | 1° |
| 2026-05-05 23:13 | 42.76126 | -74.08285 | 18814 ft | 233 kts | 1° |
| 2026-05-05 23:13 | 42.77730 | -74.07836 | 18813 ft | 234 kts | 1° |
| 2026-05-05 23:14 | 42.79310 | -74.07394 | 18812 ft | 234 kts | 1° |
| 2026-05-05 23:14 | 42.80904 | -74.06948 | 18813 ft | 234 kts | 1° |
| 2026-05-05 23:14 | 42.82494 | -74.06504 | 18810 ft | 234 kts | 1° |
| 2026-05-05 23:14 | 42.84107 | -74.06052 | 18811 ft | 233 kts | 1° |
| 2026-05-05 23:15 | 42.85691 | -74.05610 | 18810 ft | 233 kts | 1° |
| 2026-05-05 23:15 | 42.87277 | -74.05166 | 18809 ft | 233 kts | 1° |
| 2026-05-05 23:15 | 42.88867 | -74.04718 | 18813 ft | 233 kts | 1° |
| 2026-05-05 23:15 | 42.90418 | -74.04283 | 18812 ft | 234 kts | 1° |
| 2026-05-05 23:16 | 42.92058 | -74.03823 | 18810 ft | 234 kts | 1° |
| 2026-05-05 23:16 | 42.93630 | -74.03382 | 18812 ft | 234 kts | 1° |
| 2026-05-05 23:16 | 42.95225 | -74.02934 | 18810 ft | 234 kts | 1° |
| 2026-05-05 23:16 | 42.96820 | -74.02486 | 18810 ft | 234 kts | 1° |
| 2026-05-05 23:17 | 42.98420 | -74.02036 | 18811 ft | 235 kts | 1° |
| 2026-05-05 23:17 | 43.00020 | -74.01586 | 18811 ft | 235 kts | 1° |
| 2026-05-05 23:17 | 43.01619 | -74.01135 | 18810 ft | 235 kts | 1° |
| 2026-05-05 23:17 | 43.03224 | -74.00683 | 18811 ft | 235 kts | 1° |
| 2026-05-05 23:18 | 43.04814 | -74.00234 | 18812 ft | 235 kts | 1° |
| 2026-05-05 23:18 | 43.06428 | -73.99780 | 18812 ft | 235 kts | 2° |
| 2026-05-05 23:18 | 43.08035 | -73.99327 | 18813 ft | 235 kts | 2° |
| 2026-05-05 23:18 | 43.09631 | -73.98877 | 18811 ft | 236 kts | 2° |
| 2026-05-05 23:19 | 43.11244 | -73.98421 | 18811 ft | 236 kts | 2° |
| 2026-05-05 23:19 | 43.12846 | -73.97968 | 18814 ft | 237 kts | 2° |
| 2026-05-05 23:19 | 43.14469 | -73.97508 | 18815 ft | 237 kts | 2° |
| 2026-05-05 23:19 | 43.16085 | -73.97052 | 18813 ft | 237 kts | 2° |
| 2026-05-05 23:20 | 43.17691 | -73.96597 | 18814 ft | 238 kts | 2° |
| 2026-05-05 23:20 | 43.19305 | -73.96140 | 18810 ft | 237 kts | 2° |
| 2026-05-05 23:20 | 43.20910 | -73.95685 | 18813 ft | 238 kts | 2° |
| 2026-05-05 23:20 | 43.22521 | -73.95229 | 18813 ft | 238 kts | 2° |
| 2026-05-05 23:21 | 43.24170 | -73.94760 | 18812 ft | 238 kts | 2° |
| 2026-05-05 23:21 | 43.25794 | -73.94300 | 18803 ft | 238 kts | 2° |
| 2026-05-05 23:21 | 43.27397 | -73.93844 | 18804 ft | 238 kts | 2° |
| 2026-05-05 23:21 | 43.29018 | -73.93384 | 18804 ft | 238 kts | 2° |
| 2026-05-05 23:22 | 43.30633 | -73.92925 | 18804 ft | 238 kts | 2° |
| 2026-05-05 23:22 | 43.32264 | -73.92465 | 18805 ft | 239 kts | 2° |
| 2026-05-05 23:22 | 43.33894 | -73.91997 | 18804 ft | 239 kts | 2° |
| 2026-05-05 23:22 | 43.35541 | -73.91525 | 18804 ft | 239 kts | 2° |
| 2026-05-05 23:23 | 43.37158 | -73.91067 | 18804 ft | 239 kts | 2° |
| 2026-05-05 23:23 | 43.38771 | -73.90608 | 18804 ft | 239 kts | 2° |
| 2026-05-05 23:23 | 43.40400 | -73.90143 | 18800 ft | 239 kts | 2° |
| 2026-05-05 23:23 | 43.42031 | -73.89677 | 18800 ft | 239 kts | 2° |
| 2026-05-05 23:24 | 43.43656 | -73.89215 | 18802 ft | 239 kts | 2° |
| 2026-05-05 23:24 | 43.45290 | -73.88747 | 18802 ft | 239 kts | 2° |
| 2026-05-05 23:24 | 43.46895 | -73.88287 | 18801 ft | 239 kts | 2° |
| 2026-05-05 23:24 | 43.48493 | -73.87830 | 18801 ft | 239 kts | 2° |
| 2026-05-05 23:25 | 43.50138 | -73.87360 | 18798 ft | 238 kts | 2° |
| 2026-05-05 23:25 | 43.51765 | -73.86895 | 18794 ft | 238 kts | 2° |
| 2026-05-05 23:25 | 43.53391 | -73.86429 | 18793 ft | 239 kts | 2° |
| 2026-05-05 23:25 | 43.54987 | -73.85971 | 18792 ft | 239 kts | 2° |
| 2026-05-05 23:26 | 43.56611 | -73.85506 | 18792 ft | 239 kts | 2° |
| 2026-05-05 23:26 | 43.58247 | -73.85036 | 18792 ft | 239 kts | 2° |
| 2026-05-05 23:26 | 43.59876 | -73.84568 | 18794 ft | 239 kts | 2° |
| 2026-05-05 23:26 | 43.61511 | -73.84099 | 18793 ft | 239 kts | 2° |
| 2026-05-05 23:27 | 43.63141 | -73.83630 | 18794 ft | 239 kts | 2° |
| 2026-05-05 23:27 | 43.64778 | -73.83160 | 18794 ft | 240 kts | 2° |
| 2026-05-05 23:27 | 43.66414 | -73.82688 | 18793 ft | 240 kts | 2° |
| 2026-05-05 23:27 | 43.68030 | -73.82224 | 18793 ft | 240 kts | 2° |
| 2026-05-05 23:28 | 43.69652 | -73.81756 | 18793 ft | 240 kts | 2° |
| 2026-05-05 23:28 | 43.71321 | -73.81275 | 18792 ft | 239 kts | 2° |
| 2026-05-05 23:28 | 43.72934 | -73.80810 | 18793 ft | 240 kts | 2° |
| 2026-05-05 23:28 | 43.74544 | -73.80346 | 18793 ft | 240 kts | 2° |
| 2026-05-05 23:29 | 43.76198 | -73.79868 | 18791 ft | 239 kts | 2° |
| 2026-05-05 23:29 | 43.77832 | -73.79396 | 18791 ft | 239 kts | 2° |
| 2026-05-05 23:29 | 43.79445 | -73.78930 | 18791 ft | 239 kts | 2° |
| 2026-05-05 23:29 | 43.81093 | -73.78453 | 18791 ft | 240 kts | 2° |
| 2026-05-05 23:30 | 43.82726 | -73.77981 | 18791 ft | 240 kts | 2° |
| 2026-05-05 23:30 | 43.84357 | -73.77509 | 18792 ft | 240 kts | 2° |
| 2026-05-05 23:30 | 43.85989 | -73.77036 | 18790 ft | 239 kts | 2° |
| 2026-05-05 23:30 | 43.87609 | -73.76556 | 18791 ft | 239 kts | 2° |
| 2026-05-05 23:31 | 43.89230 | -73.76091 | 18791 ft | 239 kts | 1° |
| 2026-05-05 23:31 | 43.90869 | -73.75629 | 18791 ft | 239 kts | 2° |
| 2026-05-05 23:31 | 43.92501 | -73.75152 | 18791 ft | 239 kts | 2° |
| 2026-05-05 23:31 | 43.94112 | -73.74679 | 18789 ft | 239 kts | 2° |
| 2026-05-05 23:32 | 43.95759 | -73.74200 | 18800 ft | 239 kts | 2° |
| 2026-05-05 23:32 | 43.97393 | -73.73726 | 18798 ft | 239 kts | 2° |
| 2026-05-05 23:32 | 43.99012 | -73.73255 | 18795 ft | 239 kts | 2° |
| 2026-05-05 23:32 | 44.00650 | -73.72777 | 18797 ft | 238 kts | 2° |
| 2026-05-05 23:33 | 44.02276 | -73.72304 | 18799 ft | 239 kts | 2° |
| 2026-05-05 23:33 | 44.03911 | -73.71830 | 18802 ft | 240 kts | 2° |
| 2026-05-05 23:33 | 44.05515 | -73.71360 | 18799 ft | 240 kts | 2° |
| 2026-05-05 23:33 | 44.07164 | -73.70877 | 18801 ft | 240 kts | 2° |
| 2026-05-05 23:34 | 44.08801 | -73.70402 | 18802 ft | 240 kts | 2° |
| 2026-05-05 23:34 | 44.10439 | -73.69922 | 18802 ft | 241 kts | 2° |
| 2026-05-05 23:34 | 44.12086 | -73.69440 | 18803 ft | 241 kts | 2° |
| 2026-05-05 23:34 | 44.13720 | -73.68962 | 18801 ft | 240 kts | 2° |
| 2026-05-05 23:35 | 44.15367 | -73.68481 | 18801 ft | 240 kts | 2° |
| 2026-05-05 23:35 | 44.17007 | -73.68003 | 18802 ft | 241 kts | 2° |
| 2026-05-05 23:35 | 44.18641 | -73.67522 | 18803 ft | 241 kts | 2° |
| 2026-05-05 23:35 | 44.20292 | -73.67038 | 18802 ft | 241 kts | 2° |
| 2026-05-05 23:36 | 44.21934 | -73.66556 | 18803 ft | 241 kts | 2° |
| 2026-05-05 23:36 | 44.23564 | -73.66078 | 18803 ft | 241 kts | 2° |
| 2026-05-05 23:36 | 44.25222 | -73.65591 | 18805 ft | 242 kts | 2° |
| 2026-05-05 23:36 | 44.26866 | -73.65109 | 18803 ft | 242 kts | 2° |
| 2026-05-05 23:37 | 44.28515 | -73.64623 | 18804 ft | 241 kts | 2° |
| 2026-05-05 23:37 | 44.30157 | -73.64140 | 18804 ft | 241 kts | 2° |
| 2026-05-05 23:37 | 44.31802 | -73.63659 | 18792 ft | 243 kts | 2° |
| 2026-05-05 23:37 | 44.33457 | -73.63170 | 18789 ft | 242 kts | 2° |
| 2026-05-05 23:38 | 44.35104 | -73.62683 | 18787 ft | 241 kts | 2° |
| 2026-05-05 23:38 | 44.36739 | -73.62201 | 18788 ft | 240 kts | 2° |
| 2026-05-05 23:38 | 44.38381 | -73.61718 | 18789 ft | 241 kts | 2° |
| 2026-05-05 23:38 | 44.40022 | -73.61233 | 18787 ft | 241 kts | 2° |
| 2026-05-05 23:39 | 44.41663 | -73.60748 | 18785 ft | 240 kts | 1° |
| 2026-05-05 23:39 | 44.43297 | -73.60268 | 18786 ft | 241 kts | 2° |
| 2026-05-05 23:39 | 44.44921 | -73.59787 | 18774 ft | 242 kts | 2° |
| 2026-05-05 23:39 | 44.46593 | -73.59292 | 18775 ft | 242 kts | 2° |
| 2026-05-05 23:40 | 44.48247 | -73.58802 | 18775 ft | 243 kts | 2° |
| 2026-05-05 23:40 | 44.49909 | -73.58311 | 18764 ft | 245 kts | 2° |
| 2026-05-05 23:40 | 44.51573 | -73.57817 | 18766 ft | 245 kts | 2° |
| 2026-05-05 23:40 | 44.53240 | -73.57322 | 18766 ft | 244 kts | 2° |
| 2026-05-05 23:41 | 44.54903 | -73.56828 | 18765 ft | 244 kts | 2° |
| 2026-05-05 23:41 | 44.56565 | -73.56335 | 18762 ft | 244 kts | 2° |
| 2026-05-05 23:41 | 44.58194 | -73.55852 | 18755 ft | 244 kts | 2° |
| 2026-05-05 23:41 | 44.59890 | -73.55348 | 18754 ft | 244 kts | 2° |
| 2026-05-05 23:42 | 44.61550 | -73.54855 | 18753 ft | 244 kts | 2° |
| 2026-05-05 23:42 | 44.63217 | -73.54359 | 18753 ft | 244 kts | 2° |
| 2026-05-05 23:42 | 44.64881 | -73.53861 | 18753 ft | 244 kts | 2° |
| 2026-05-05 23:42 | 44.66524 | -73.53372 | 18750 ft | 243 kts | 2° |
| 2026-05-05 23:43 | 44.68165 | -73.52885 | 18750 ft | 244 kts | 2° |
| 2026-05-05 23:43 | 44.69857 | -73.52379 | 18749 ft | 245 kts | 3° |
| 2026-05-05 23:43 | 44.71481 | -73.51635 | 18749 ft | 250 kts | 13° |
| 2026-05-05 23:43 | 44.73122 | -73.50766 | 18750 ft | 250 kts | 12° |
| 2026-05-05 23:44 | 44.74736 | -73.49935 | 18751 ft | 250 kts | 12° |
| 2026-05-05 23:44 | 44.76372 | -73.49096 | 18751 ft | 250 kts | 12° |
| 2026-05-05 23:44 | 44.77990 | -73.48264 | 18752 ft | 251 kts | 12° |
| 2026-05-05 23:44 | 44.79669 | -73.47398 | 18752 ft | 251 kts | 12° |
| 2026-05-05 23:45 | 44.81290 | -73.46561 | 18751 ft | 251 kts | 12° |
| 2026-05-05 23:45 | 44.82926 | -73.45717 | 18752 ft | 252 kts | 12° |
| 2026-05-05 23:45 | 44.84585 | -73.44858 | 18753 ft | 252 kts | 12° |
| 2026-05-05 23:45 | 44.86228 | -73.44009 | 18753 ft | 252 kts | 12° |
| 2026-05-05 23:46 | 44.87879 | -73.43157 | 18754 ft | 252 kts | 12° |
| 2026-05-05 23:46 | 44.89531 | -73.42303 | 18754 ft | 252 kts | 12° |
| 2026-05-05 23:46 | 44.91176 | -73.41450 | 18754 ft | 253 kts | 12° |
| 2026-05-05 23:46 | 44.92817 | -73.40599 | 18753 ft | 253 kts | 12° |
| 2026-05-05 23:47 | 44.94484 | -73.39735 | 18754 ft | 253 kts | 12° |
| 2026-05-05 23:47 | 44.96134 | -73.38880 | 18754 ft | 253 kts | 12° |
| 2026-05-05 23:47 | 44.97791 | -73.38020 | 18753 ft | 253 kts | 12° |
| 2026-05-05 23:47 | 44.99448 | -73.37159 | 18753 ft | 253 kts | 12° |
| 2026-05-05 23:48 | 45.01102 | -73.36299 | 18753 ft | 253 kts | 12° |
| 2026-05-05 23:48 | 45.02735 | -73.35449 | 18753 ft | 253 kts | 12° |
| 2026-05-05 23:48 | 45.04416 | -73.34576 | 18753 ft | 253 kts | 12° |
| 2026-05-05 23:48 | 45.05508 | -73.34007 | 18753 ft | 254 kts | 12° |
| 2026-05-05 23:49 | 45.07187 | -73.33132 | 18752 ft | 254 kts | 12° |
| 2026-05-05 23:49 | 45.08814 | -73.32285 | 18752 ft | 254 kts | 12° |
| 2026-05-05 23:49 | 45.10513 | -73.31399 | 18752 ft | 254 kts | 12° |
| 2026-05-05 23:49 | 45.12171 | -73.30533 | 18753 ft | 254 kts | 12° |
| 2026-05-05 23:50 | 45.13834 | -73.29665 | 18753 ft | 255 kts | 12° |
| 2026-05-05 23:50 | 45.15499 | -73.28795 | 18746 ft | 255 kts | 12° |
| 2026-05-05 23:50 | 45.17163 | -73.27924 | 18746 ft | 255 kts | 12° |
| 2026-05-05 23:50 | 45.18809 | -73.27064 | 18747 ft | 255 kts | 12° |
| 2026-05-05 23:51 | 45.20484 | -73.26187 | 18746 ft | 255 kts | 12° |
| 2026-05-05 23:51 | 45.22139 | -73.25319 | 18746 ft | 255 kts | 12° |
| 2026-05-05 23:51 | 45.23838 | -73.24429 | 18746 ft | 256 kts | 12° |
| 2026-05-05 23:51 | 45.25506 | -73.23555 | 18737 ft | 257 kts | 12° |
| 2026-05-05 23:52 | 45.27161 | -73.22686 | 18738 ft | 257 kts | 12° |
| 2026-05-05 23:52 | 45.28848 | -73.21800 | 18738 ft | 257 kts | 12° |
| 2026-05-05 23:52 | 45.30527 | -73.20918 | 18738 ft | 257 kts | 12° |
| 2026-05-05 23:52 | 45.32205 | -73.20036 | 18738 ft | 257 kts | 12° |
| 2026-05-05 23:53 | 45.33889 | -73.19150 | 18727 ft | 258 kts | 13° |
| 2026-05-05 23:53 | 45.35572 | -73.18263 | 18728 ft | 258 kts | 12° |
| 2026-05-05 23:53 | 45.37253 | -73.17378 | 18727 ft | 257 kts | 13° |
| 2026-05-05 23:53 | 45.38934 | -73.16491 | 18727 ft | 257 kts | 12° |
| 2026-05-05 23:54 | 45.40613 | -73.15606 | 18727 ft | 257 kts | 12° |
| 2026-05-05 23:54 | 45.42291 | -73.14721 | 18727 ft | 257 kts | 12° |
| 2026-05-05 23:54 | 45.43967 | -73.13835 | 18727 ft | 257 kts | 13° |
| 2026-05-05 23:54 | 45.45628 | -73.12958 | 18726 ft | 257 kts | 12° |
| 2026-05-05 23:55 | 45.47308 | -73.12070 | 18726 ft | 258 kts | 12° |
| 2026-05-05 23:55 | 45.48988 | -73.11180 | 18725 ft | 258 kts | 13° |
| 2026-05-05 23:55 | 45.50669 | -73.10289 | 18726 ft | 258 kts | 13° |
| 2026-05-05 23:55 | 45.52358 | -73.09395 | 18727 ft | 259 kts | 13° |
| 2026-05-05 23:56 | 45.54025 | -73.08513 | 18726 ft | 259 kts | 13° |
| 2026-05-05 23:56 | 45.55734 | -73.07607 | 18726 ft | 258 kts | 13° |
| 2026-05-05 23:56 | 45.57415 | -73.06713 | 18726 ft | 258 kts | 13° |
| 2026-05-05 23:56 | 45.59105 | -73.05814 | 18726 ft | 258 kts | 13° |
| 2026-05-05 23:57 | 45.60791 | -73.04919 | 18727 ft | 258 kts | 13° |
| 2026-05-05 23:57 | 45.62480 | -73.04021 | 18727 ft | 258 kts | 13° |
| 2026-05-05 23:57 | 45.64164 | -73.03125 | 18726 ft | 259 kts | 13° |
| 2026-05-05 23:57 | 45.65852 | -73.02226 | 18726 ft | 259 kts | 13° |
| 2026-05-05 23:58 | 45.67544 | -73.01325 | 18726 ft | 260 kts | 13° |
| 2026-05-05 23:58 | 45.69243 | -73.00420 | 18720 ft | 260 kts | 13° |
| 2026-05-05 23:58 | 45.70921 | -72.99523 | 18718 ft | 261 kts | 13° |
| 2026-05-05 23:58 | 45.72623 | -72.98614 | 18719 ft | 260 kts | 13° |
| 2026-05-05 23:59 | 45.74320 | -72.97707 | 18719 ft | 260 kts | 13° |
| 2026-05-05 23:59 | 45.76007 | -72.96805 | 18719 ft | 261 kts | 13° |
| 2026-05-05 23:59 | 45.77700 | -72.95900 | 18720 ft | 261 kts | 13° |
| 2026-05-05 23:59 | 45.79418 | -72.94980 | 18720 ft | 260 kts | 13° |
| 2026-05-06 00:00 | 45.81117 | -72.94070 | 18719 ft | 261 kts | 13° |
| 2026-05-06 00:00 | 45.82801 | -72.93167 | 18719 ft | 261 kts | 13° |
| 2026-05-06 00:00 | 45.84486 | -72.92264 | 18719 ft | 261 kts | 13° |
| 2026-05-06 00:00 | 45.86225 | -72.91330 | 18719 ft | 261 kts | 13° |
| 2026-05-06 00:01 | 45.87910 | -72.90425 | 18711 ft | 261 kts | 13° |
| 2026-05-06 00:01 | 45.89593 | -72.89521 | 18708 ft | 261 kts | 13° |
| 2026-05-06 00:01 | 45.91293 | -72.88424 | 18706 ft | 266 kts | 28° |
| 2026-05-06 00:01 | 45.92695 | -72.86665 | 18703 ft | 269 kts | 49° |
| 2026-05-06 00:02 | 45.93852 | -72.84610 | 18710 ft | 269 kts | 51° |
| 2026-05-06 00:02 | 45.95056 | -72.82478 | 18707 ft | 269 kts | 51° |
| 2026-05-06 00:02 | 45.96241 | -72.80388 | 18711 ft | 270 kts | 51° |
| 2026-05-06 00:02 | 45.97424 | -72.78296 | 18713 ft | 270 kts | 51° |
| 2026-05-06 00:03 | 45.98576 | -72.76252 | 18710 ft | 271 kts | 50° |
| 2026-05-06 00:03 | 45.99797 | -72.74087 | 18703 ft | 273 kts | 49° |
| 2026-05-06 00:03 | 46.00990 | -72.71972 | 18707 ft | 274 kts | 49° |
| 2026-05-06 00:03 | 46.02200 | -72.69823 | 18702 ft | 277 kts | 50° |
| 2026-05-06 00:04 | 46.03421 | -72.67656 | 18703 ft | 279 kts | 50° |
| 2026-05-06 00:04 | 46.04630 | -72.65504 | 18705 ft | 281 kts | 50° |
| 2026-05-06 00:04 | 46.05858 | -72.63316 | 18711 ft | 282 kts | 50° |
| 2026-05-06 00:04 | 46.07099 | -72.61106 | 18713 ft | 283 kts | 50° |
| 2026-05-06 00:05 | 46.09576 | -72.56691 | 18714 ft | 283 kts | 50° |
| 2026-05-06 00:05 | 46.10817 | -72.54474 | 18706 ft | 284 kts | 50° |
| 2026-05-06 00:05 | 46.12057 | -72.52258 | 18708 ft | 284 kts | 50° |
| 2026-05-06 00:06 | 46.13298 | -72.50039 | 18708 ft | 284 kts | 50° |
| 2026-05-06 00:06 | 46.14536 | -72.47824 | 18707 ft | 284 kts | 50° |
| 2026-05-06 00:06 | 46.15778 | -72.45599 | 18712 ft | 284 kts | 50° |
| 2026-05-06 00:06 | 46.17014 | -72.43384 | 18707 ft | 284 kts | 50° |
| 2026-05-06 00:07 | 46.18268 | -72.41135 | 18708 ft | 284 kts | 50° |
| 2026-05-06 00:07 | 46.19475 | -72.38968 | 18708 ft | 283 kts | 50° |
| 2026-05-06 00:07 | 46.20723 | -72.36725 | 18706 ft | 283 kts | 50° |
| 2026-05-06 00:07 | 46.21960 | -72.34503 | 18713 ft | 283 kts | 50° |
| 2026-05-06 00:08 | 46.23173 | -72.32322 | 18707 ft | 283 kts | 50° |
| 2026-05-06 00:08 | 46.24423 | -72.30071 | 18703 ft | 283 kts | 50° |
| 2026-05-06 00:08 | 46.25645 | -72.27864 | 18703 ft | 283 kts | 50° |
| 2026-05-06 00:08 | 46.26884 | -72.25629 | 18703 ft | 283 kts | 50° |
| 2026-05-06 00:09 | 46.28115 | -72.23406 | 18708 ft | 283 kts | 50° |
| 2026-05-06 00:09 | 46.29345 | -72.21186 | 18700 ft | 283 kts | 50° |
| 2026-05-06 00:09 | 46.30573 | -72.18965 | 18703 ft | 283 kts | 50° |
| 2026-05-06 00:09 | 46.31801 | -72.16742 | 18708 ft | 283 kts | 50° |
| 2026-05-06 00:10 | 46.33029 | -72.14518 | 18708 ft | 283 kts | 50° |
| 2026-05-06 00:10 | 46.34234 | -72.12334 | 18709 ft | 282 kts | 50° |
| 2026-05-06 00:10 | 46.35477 | -72.10077 | 18704 ft | 282 kts | 50° |
| 2026-05-06 00:10 | 46.36705 | -72.07846 | 18701 ft | 283 kts | 50° |
| 2026-05-06 00:11 | 46.37915 | -72.05651 | 18699 ft | 283 kts | 50° |
| 2026-05-06 00:11 | 46.39158 | -72.03393 | 18702 ft | 283 kts | 50° |
| 2026-05-06 00:11 | 46.40372 | -72.01182 | 18702 ft | 283 kts | 50° |
| 2026-05-06 00:11 | 46.41591 | -71.98959 | 18702 ft | 283 kts | 50° |
| 2026-05-06 00:12 | 46.42808 | -71.96742 | 18697 ft | 282 kts | 50° |
| 2026-05-06 00:12 | 46.44037 | -71.94501 | 18703 ft | 282 kts | 50° |
| 2026-05-06 00:12 | 46.45256 | -71.92276 | 18697 ft | 282 kts | 50° |
| 2026-05-06 00:12 | 46.46456 | -71.90082 | 18701 ft | 282 kts | 50° |
| 2026-05-06 00:13 | 46.47671 | -71.87861 | 18700 ft | 282 kts | 50° |
| 2026-05-06 00:13 | 46.48912 | -71.85589 | 18694 ft | 282 kts | 50° |
| 2026-05-06 00:13 | 46.50117 | -71.83383 | 18687 ft | 282 kts | 50° |
| 2026-05-06 00:13 | 46.51353 | -71.81115 | 18693 ft | 282 kts | 51° |
| 2026-05-06 00:14 | 46.52573 | -71.78876 | 18690 ft | 282 kts | 51° |
| 2026-05-06 00:14 | 46.53794 | -71.76636 | 18685 ft | 283 kts | 51° |
| 2026-05-06 00:14 | 46.55011 | -71.74441 | 18690 ft | 282 kts | 46° |
| 2026-05-06 00:14 | 46.56531 | -71.72633 | 18686 ft | 276 kts | 24° |
| 2026-05-06 00:15 | 46.58248 | -71.71520 | 18683 ft | 265 kts | 5° |
| 2026-05-06 00:15 | 46.60009 | -71.70925 | 18690 ft | 261 kts | 1° |
| 2026-05-06 00:15 | 46.61773 | -71.70339 | 18689 ft | 262 kts | 1° |
| 2026-05-06 00:15 | 46.63460 | -71.69776 | 18693 ft | 262 kts | 1° |
| 2026-05-06 00:16 | 46.65260 | -71.69182 | 18680 ft | 263 kts | 1° |
| 2026-05-06 00:16 | 46.67065 | -71.68746 | 18681 ft | 254 kts | 350° |
| 2026-05-06 00:16 | 46.68786 | -71.68665 | 18684 ft | 251 kts | 346° |
| 2026-05-06 00:16 | 46.70501 | -71.68576 | 18684 ft | 254 kts | 349° |
| 2026-05-06 00:17 | 46.72260 | -71.68344 | 18685 ft | 256 kts | 353° |
| 2026-05-06 00:17 | 46.74035 | -71.68080 | 18686 ft | 255 kts | 351° |
| 2026-05-06 00:17 | 46.75798 | -71.67867 | 18684 ft | 254 kts | 350° |
| 2026-05-06 00:17 | 46.77564 | -71.67661 | 18685 ft | 254 kts | 351° |
| 2026-05-06 00:18 | 46.79197 | -71.67462 | 18684 ft | 254 kts | 351° |
| 2026-05-06 00:18 | 46.80962 | -71.67242 | 18684 ft | 254 kts | 351° |
| 2026-05-06 00:18 | 46.82729 | -71.67025 | 18684 ft | 255 kts | 351° |
| 2026-05-06 00:18 | 46.84396 | -71.66820 | 18686 ft | 256 kts | 351° |
| 2026-05-06 00:19 | 46.86097 | -71.66609 | 18685 ft | 257 kts | 351° |
| 2026-05-06 00:19 | 46.87854 | -71.66390 | 18687 ft | 257 kts | 351° |
| 2026-05-06 00:19 | 46.89636 | -71.66171 | 18690 ft | 257 kts | 351° |
| 2026-05-06 00:19 | 46.91418 | -71.65953 | 18685 ft | 255 kts | 350° |
| 2026-05-06 00:20 | 46.93188 | -71.65734 | 18683 ft | 256 kts | 351° |
| 2026-05-06 00:20 | 46.94966 | -71.65508 | 18687 ft | 257 kts | 350° |
| 2026-05-06 00:20 | 46.96745 | -71.65291 | 18687 ft | 257 kts | 351° |
| 2026-05-06 00:20 | 46.98535 | -71.65072 | 18684 ft | 258 kts | 351° |
| 2026-05-06 00:21 | 47.00329 | -71.64850 | 18689 ft | 259 kts | 351° |
| 2026-05-06 00:21 | 47.02131 | -71.64624 | 18688 ft | 260 kts | 350° |
| 2026-05-06 00:21 | 47.03933 | -71.64399 | 18689 ft | 260 kts | 350° |
| 2026-05-06 00:21 | 47.05734 | -71.64180 | 18688 ft | 260 kts | 351° |
| 2026-05-06 00:22 | 47.07371 | -71.63974 | 18691 ft | 260 kts | 351° |
| 2026-05-06 00:22 | 47.09251 | -71.63735 | 18691 ft | 261 kts | 350° |
| 2026-05-06 00:22 | 47.11069 | -71.63515 | 18691 ft | 262 kts | 350° |
| 2026-05-06 00:22 | 47.12893 | -71.63286 | 18689 ft | 264 kts | 351° |
| 2026-05-06 00:23 | 47.14722 | -71.63053 | 18687 ft | 263 kts | 350° |
| 2026-05-06 00:23 | 47.16385 | -71.62836 | 18681 ft | 263 kts | 350° |
| 2026-05-06 00:23 | 47.18204 | -71.62618 | 18684 ft | 261 kts | 350° |
| 2026-05-06 00:23 | 47.20039 | -71.62395 | 18680 ft | 262 kts | 350° |
| 2026-05-06 00:24 | 47.21866 | -71.62167 | 18681 ft | 263 kts | 350° |
| 2026-05-06 00:24 | 47.23683 | -71.61930 | 18686 ft | 261 kts | 350° |
| 2026-05-06 00:24 | 47.25475 | -71.61711 | 18683 ft | 262 kts | 349° |
| 2026-05-06 00:24 | 47.27282 | -71.61485 | 18781 ft | 258 kts | 350° |
| 2026-05-06 00:25 | 47.29102 | -71.61262 | 18583 ft | 266 kts | 350° |
| 2026-05-06 00:25 | 47.30348 | -71.61105 | 18414 ft | 265 kts | 350° |
| 2026-05-06 00:25 | 47.32690 | -71.60795 | 18094 ft | 262 kts | 349° |
| 2026-05-06 00:25 | 47.34503 | -71.60574 | 17840 ft | 261 kts | 349° |
| 2026-05-06 00:26 | 47.36309 | -71.60353 | 17587 ft | 259 kts | 349° |
| 2026-05-06 00:26 | 47.37524 | -71.60197 | 17418 ft | 258 kts | 349° |
| 2026-05-06 00:26 | 47.39291 | -71.59972 | 17170 ft | 258 kts | 349° |
| 2026-05-06 00:26 | 47.41080 | -71.59755 | 16920 ft | 258 kts | 349° |
| 2026-05-06 00:27 | 47.42865 | -71.59532 | 16669 ft | 256 kts | 350° |
| 2026-05-06 00:27 | 47.44638 | -71.59296 | 16420 ft | 255 kts | 349° |
| 2026-05-06 00:27 | 47.46403 | -71.59070 | 16172 ft | 254 kts | 349° |
| 2026-05-06 00:27 | 47.48164 | -71.58859 | 15912 ft | 252 kts | 348° |
| 2026-05-06 00:28 | 47.49904 | -71.58642 | 15669 ft | 251 kts | 349° |
| 2026-05-06 00:28 | 47.51640 | -71.58415 | 15426 ft | 250 kts | 348° |
| 2026-05-06 00:28 | 47.53381 | -71.58195 | 15164 ft | 250 kts | 349° |
| 2026-05-06 00:28 | 47.55105 | -71.57968 | 14923 ft | 248 kts | 349° |
| 2026-05-06 00:29 | 47.56826 | -71.57755 | 14671 ft | 247 kts | 348° |
| 2026-05-06 00:29 | 47.58534 | -71.57549 | 14426 ft | 246 kts | 348° |
| 2026-05-06 00:29 | 47.60243 | -71.57330 | 14175 ft | 245 kts | 349° |
| 2026-05-06 00:29 | 47.61939 | -71.57119 | 13924 ft | 243 kts | 348° |
| 2026-05-06 00:30 | 47.63623 | -71.56897 | 13674 ft | 242 kts | 348° |
| 2026-05-06 00:30 | 47.65298 | -71.56674 | 13425 ft | 242 kts | 348° |
| 2026-05-06 00:30 | 47.66974 | -71.56467 | 13178 ft | 242 kts | 348° |
| 2026-05-06 00:30 | 47.68653 | -71.56258 | 12930 ft | 241 kts | 348° |
| 2026-05-06 00:31 | 47.70321 | -71.56033 | 12683 ft | 242 kts | 349° |
| 2026-05-06 00:31 | 47.71999 | -71.55811 | 12428 ft | 239 kts | 347° |
| 2026-05-06 00:31 | 47.73649 | -71.55625 | 12179 ft | 238 kts | 347° |
| 2026-05-06 00:31 | 47.75300 | -71.55412 | 11928 ft | 237 kts | 348° |
| 2026-05-06 00:32 | 47.76935 | -71.55192 | 11683 ft | 235 kts | 348° |
| 2026-05-06 00:32 | 47.78552 | -71.54992 | 11437 ft | 231 kts | 348° |
| 2026-05-06 00:32 | 47.80158 | -71.54790 | 11182 ft | 231 kts | 349° |
| 2026-05-06 00:32 | 47.81739 | -71.54575 | 10931 ft | 228 kts | 349° |
| 2026-05-06 00:33 | 47.83317 | -71.54372 | 10681 ft | 224 kts | 350° |
| 2026-05-06 00:33 | 47.84848 | -71.54185 | 10445 ft | 223 kts | 350° |
| 2026-05-06 00:33 | 47.86388 | -71.53986 | 10190 ft | 220 kts | 350° |
| 2026-05-06 00:33 | 47.87903 | -71.53794 | 9941 ft | 217 kts | 351° |
| 2026-05-06 00:34 | 47.89396 | -71.53594 | 9693 ft | 214 kts | 351° |
| 2026-05-06 00:34 | 47.90868 | -71.53406 | 9447 ft | 211 kts | 351° |
| 2026-05-06 00:34 | 47.92322 | -71.53229 | 9195 ft | 208 kts | 352° |
| 2026-05-06 00:34 | 47.93752 | -71.53039 | 8940 ft | 204 kts | 352° |
| 2026-05-06 00:35 | 47.95157 | -71.52857 | 8690 ft | 201 kts | 352° |
| 2026-05-06 00:35 | 47.96547 | -71.52683 | 8440 ft | 200 kts | 352° |
| 2026-05-06 00:35 | 47.97935 | -71.52508 | 8188 ft | 200 kts | 353° |
| 2026-05-06 00:35 | 47.99314 | -71.52328 | 7941 ft | 197 kts | 352° |
| 2026-05-06 00:36 | 48.00687 | -71.52150 | 7680 ft | 197 kts | 353° |
| 2026-05-06 00:36 | 48.02046 | -71.51974 | 7425 ft | 195 kts | 354° |
| 2026-05-06 00:36 | 48.03394 | -71.51793 | 7173 ft | 194 kts | 354° |
| 2026-05-06 00:36 | 48.04723 | -71.51622 | 6933 ft | 192 kts | 353° |
| 2026-05-06 00:37 | 48.06064 | -71.51457 | 6669 ft | 192 kts | 354° |
| 2026-05-06 00:37 | 48.07397 | -71.51285 | 6414 ft | 192 kts | 355° |
| 2026-05-06 00:37 | 48.08717 | -71.51112 | 6163 ft | 189 kts | 355° |
| 2026-05-06 00:37 | 48.10033 | -71.50946 | 5919 ft | 189 kts | 355° |
| 2026-05-06 00:38 | 48.11351 | -71.50775 | 5668 ft | 191 kts | 356° |
| 2026-05-06 00:38 | 48.12671 | -71.50602 | 5420 ft | 190 kts | 356° |
| 2026-05-06 00:38 | 48.13983 | -71.50431 | 5173 ft | 189 kts | 357° |
| 2026-05-06 00:38 | 48.15278 | -71.50264 | 5021 ft | 183 kts | 356° |
| 2026-05-06 00:39 | 48.16498 | -71.50099 | 5004 ft | 173 kts | 356° |
| 2026-05-06 00:39 | 48.17676 | -71.49947 | 5015 ft | 169 kts | 356° |
| 2026-05-06 00:39 | 48.18861 | -71.49798 | 5011 ft | 172 kts | 357° |
| 2026-05-06 00:39 | 48.20055 | -71.49647 | 5012 ft | 173 kts | 357° |
| 2026-05-06 00:40 | 48.21250 | -71.49486 | 5012 ft | 171 kts | 357° |
| 2026-05-06 00:40 | 48.22438 | -71.49332 | 5010 ft | 171 kts | 356° |
| 2026-05-06 00:40 | 48.23630 | -71.49181 | 5012 ft | 172 kts | 357° |
| 2026-05-06 00:40 | 48.24826 | -71.49025 | 5015 ft | 173 kts | 357° |
| 2026-05-06 00:41 | 48.26022 | -71.48870 | 5017 ft | 173 kts | 357° |
| 2026-05-06 00:41 | 48.27225 | -71.48712 | 5017 ft | 173 kts | 357° |
| 2026-05-06 00:41 | 48.28423 | -71.48556 | 5018 ft | 174 kts | 357° |
| 2026-05-06 00:41 | 48.29639 | -71.48397 | 5015 ft | 174 kts | 357° |
| 2026-05-06 00:42 | 48.30832 | -71.48240 | 5017 ft | 174 kts | 357° |
| 2026-05-06 00:42 | 48.32040 | -71.48081 | 5019 ft | 174 kts | 357° |
| 2026-05-06 00:42 | 48.33245 | -71.47925 | 5015 ft | 174 kts | 357° |
| 2026-05-06 00:42 | 48.34457 | -71.47766 | 4764 ft | 172 kts | 358° |
| 2026-05-06 00:43 | 48.35637 | -71.47609 | 4508 ft | 168 kts | 358° |
| 2026-05-06 00:43 | 48.36791 | -71.47459 | 4249 ft | 165 kts | 358° |
| 2026-05-06 00:43 | 48.37933 | -71.47311 | 3990 ft | 164 kts | 359° |
| 2026-05-06 00:43 | 48.39059 | -71.47164 | 3739 ft | 162 kts | 0° |
| 2026-05-06 00:44 | 48.40192 | -71.47015 | 3482 ft | 161 kts | 1° |
| 2026-05-06 00:44 | 48.41285 | -71.46872 | 3234 ft | 159 kts | 1° |
| 2026-05-06 00:44 | 48.42384 | -71.46730 | 2984 ft | 158 kts | 2° |
| 2026-05-06 00:44 | 48.43477 | -71.46588 | 2731 ft | 157 kts | 2° |
| 2026-05-06 00:45 | 48.44567 | -71.46443 | 2486 ft | 152 kts | 3° |
| 2026-05-06 00:45 | 48.45605 | -71.46304 | 2236 ft | 147 kts | 4° |
| 2026-05-06 00:45 | 48.46582 | -71.46180 | 2210 ft | 143 kts | 3° |
| 2026-05-06 00:45 | 48.47584 | -71.46048 | 2211 ft | 146 kts | 4° |
| 2026-05-06 00:46 | 48.48601 | -71.45913 | 2215 ft | 147 kts | 4° |
| 2026-05-06 00:46 | 48.49617 | -71.45741 | 2216 ft | 148 kts | 13° |
| 2026-05-06 00:46 | 48.50494 | -71.44950 | 2218 ft | 148 kts | 46° |
| 2026-05-06 00:46 | 48.51058 | -71.43655 | 2220 ft | 148 kts | 62° |
| 2026-05-06 00:47 | 48.51580 | -71.42309 | 2220 ft | 149 kts | 60° |
| 2026-05-06 00:47 | 48.52106 | -71.40961 | 2219 ft | 150 kts | 61° |
| 2026-05-06 00:47 | 48.52631 | -71.39606 | 2219 ft | 150 kts | 61° |
| 2026-05-06 00:47 | 48.53155 | -71.38253 | 2219 ft | 149 kts | 61° |
| 2026-05-06 00:48 | 48.53679 | -71.36897 | 2218 ft | 150 kts | 61° |
| 2026-05-06 00:48 | 48.54202 | -71.35543 | 2219 ft | 149 kts | 61° |
| 2026-05-06 00:48 | 48.54724 | -71.34193 | 2216 ft | 148 kts | 60° |
| 2026-05-06 00:48 | 48.55243 | -71.32855 | 2215 ft | 148 kts | 61° |
| 2026-05-06 00:49 | 48.55761 | -71.31505 | 2216 ft | 148 kts | 63° |
| 2026-05-06 00:49 | 48.56002 | -71.30029 | 2213 ft | 146 kts | 95° |
| 2026-05-06 00:49 | 48.55795 | -71.28548 | 2215 ft | 144 kts | 108° |
| 2026-05-06 00:49 | 48.55542 | -71.27097 | 2217 ft | 145 kts | 107° |
| 2026-05-06 00:50 | 48.55288 | -71.25627 | 2218 ft | 145 kts | 107° |
| 2026-05-06 00:50 | 48.55029 | -71.24139 | 2221 ft | 145 kts | 107° |
| 2026-05-06 00:50 | 48.54772 | -71.22663 | 2221 ft | 145 kts | 107° |
| 2026-05-06 00:50 | 48.54515 | -71.21189 | 2220 ft | 145 kts | 107° |
| 2026-05-06 00:51 | 48.54259 | -71.19733 | 2202 ft | 140 kts | 108° |
| 2026-05-06 00:51 | 48.54178 | -71.19276 | 2177 ft | 138 kts | 107° |
| 2026-05-06 00:51 | 48.53810 | -71.16993 | 1987 ft | 133 kts | 107° |
| 2026-05-06 00:51 | 48.53575 | -71.15645 | 1835 ft | 132 kts | 108° |
| 2026-05-06 00:52 | 48.53347 | -71.14335 | 1693 ft | 127 kts | 107° |
| 2026-05-06 00:52 | 48.53119 | -71.13062 | 1535 ft | 124 kts | 109° |
| 2026-05-06 00:52 | 48.52879 | -71.11845 | 1362 ft | 120 kts | 108° |
| 2026-05-06 00:52 | 48.52693 | -71.10680 | 1205 ft | 107 kts | 103° |
| 2026-05-06 00:53 | 48.52520 | -71.09593 | 1024 ft | 104 kts | 109° |
| 2026-05-06 00:53 | 48.52316 | -71.08562 | 873 ft | 102 kts | 106° |
| 2026-05-06 00:53 | 48.52147 | -71.07531 | 729 ft | 100 kts | 107° |
| 2026-05-06 00:53 | 48.51954 | -71.06531 | 585 ft | 99 kts | 110° |
| 2026-05-06 00:54 | 48.51782 | -71.05625 | 542 ft | 75 kts | 104° |
| 2026-05-06 00:54 | 48.51689 | -71.05016 | 542 ft | 43 kts | 99° |
| 2026-05-06 00:54 | 48.51619 | -71.04657 | 542 ft | 32 kts | 104° |
| 2026-05-06 00:54 | 48.51570 | -71.04367 | 547 ft | 27 kts | 97° |
| 2026-05-06 00:55 | 48.51565 | -71.04157 | 545 ft | 11 kts | 10° |
| 2026-05-06 00:55 | 48.51648 | -71.04222 | 544 ft | 16 kts | 323° |
| 2026-05-06 00:55 | 48.51717 | -71.04384 | 540 ft | 23 kts | 284° |
| 2026-05-06 00:55 | 48.51761 | -71.04606 | 540 ft | 17 kts | 310° |
| 2026-05-06 00:56 | 48.51875 | -71.04673 | 537 ft | 22 kts | 345° |
| 2026-05-06 00:56 | 48.52050 | -71.04746 | 542 ft | 28 kts | 346° |
| 2026-05-06 00:56 | 48.52267 | -71.04833 | 544 ft | 35 kts | 343° |
| 2026-05-06 00:56 | 48.52497 | -71.04933 | 543 ft | 33 kts | 343° |
| 2026-05-06 00:57 | 48.52664 | -71.05015 | 542 ft | 19 kts | 322° |
| 2026-05-06 00:57 | 48.52668 | -71.05090 | 542 ft | 0 kts | 197° |
| 2026-05-06 00:57 | 48.52666 | -71.05104 | 542 ft | 5 kts | 319° |
| 2026-05-06 00:57 | 48.52698 | -71.05104 | 543 ft | 6 kts | 339° |
| 2026-05-06 00:58 | 48.52691 | -71.05199 | 542 ft | 14 kts | 257° |
| 2026-05-06 00:58 | 48.52668 | -71.05382 | 539 ft | 17 kts | 279° |
| 2026-05-06 00:58 | 48.52684 | -71.05437 | 539 ft | 0 kts | 293° |
| 2026-05-06 00:59 | 40.72894 | -73.41696 | 539 ft | 3 kts | 18° |